createdAt,value
2022-08-27T00:01:35.939Z,16.90
2022-08-27T00:04:04.447Z,18.38
2022-08-27T00:06:31.218Z,15.98
2022-08-27T00:08:58.243Z,17.83
2022-08-27T00:11:25.471Z,18.85
2022-08-27T00:13:52.662Z,18.73
2022-08-27T00:16:19.561Z,11.80
2022-08-27T00:18:48.259Z,19.58
2022-08-27T00:21:16.969Z,16.58
2022-08-27T00:23:44.075Z,27.08
2022-08-27T00:26:10.916Z,19.67
2022-08-27T00:28:38.007Z,16.02
2022-08-27T00:31:05.286Z,20.48
2022-08-27T00:33:31.932Z,18.27
2022-08-27T00:35:58.864Z,18.75
2022-08-27T00:38:26.076Z,25.00
2022-08-27T00:40:53.546Z,22.08
2022-08-27T00:43:25.404Z,19.65
2022-08-27T00:45:55.761Z,19.08
2022-08-27T00:48:25.123Z,22.15
2022-08-27T00:50:54.219Z,19.83
2022-08-27T00:53:24.215Z,12.57
2022-08-27T00:55:59.872Z,25.48
2022-08-27T00:58:32.837Z,17.20
2022-08-27T01:01:01.242Z,18.08
2022-08-27T01:03:28.068Z,22.65
2022-08-27T01:05:57.788Z,14.35
2022-08-27T01:08:26.756Z,16.08
2022-08-27T01:10:55.187Z,19.45
2022-08-27T01:13:59.013Z,18.63
2022-08-27T01:16:17.005Z,16.88
2022-08-27T01:18:44.607Z,15.68
2022-08-27T01:21:26.716Z,21.13
2022-08-27T01:24:31.041Z,18.42
2022-08-27T01:26:59.760Z,18.02
2022-08-27T01:29:26.856Z,21.50
2022-08-27T01:31:53.542Z,16.75
2022-08-27T01:34:20.206Z,17.48
2022-08-27T01:36:46.812Z,15.32
2022-08-27T01:39:13.415Z,16.20
2022-08-27T01:41:40.212Z,15.85
2022-08-27T01:44:06.887Z,14.73
2022-08-27T01:46:33.573Z,16.98
2022-08-27T01:49:00.268Z,14.55
2022-08-27T01:51:26.840Z,12.25
2022-08-27T01:53:53.494Z,16.88
2022-08-27T01:56:20.350Z,16.95
2022-08-27T01:58:48.272Z,13.27
2022-08-27T02:01:16.813Z,17.00
2022-08-27T02:03:44.534Z,22.80
2022-08-27T02:06:12.215Z,13.90
2022-08-27T02:08:39.981Z,17.45
2022-08-27T02:11:08.266Z,18.05
2022-08-27T02:13:35.492Z,18.98
2022-08-27T02:16:02.244Z,11.30
2022-08-27T02:18:28.865Z,14.30
2022-08-27T02:20:55.476Z,16.38
2022-08-27T02:23:22.232Z,13.38
2022-08-27T02:25:48.910Z,21.08
2022-08-27T02:28:15.770Z,19.35
2022-08-27T02:30:42.518Z,18.50
2022-08-27T02:33:09.439Z,13.40
2022-08-27T02:35:39.852Z,23.83
2022-08-27T02:38:08.170Z,14.95
2022-08-27T02:40:36.047Z,16.65
2022-08-27T02:43:03.547Z,18.55
2022-08-27T02:45:30.292Z,20.52
2022-08-27T02:47:56.879Z,20.70
2022-08-27T02:50:27.489Z,16.92
2022-08-27T02:52:54.739Z,17.50
2022-08-27T02:55:22.380Z,21.95
2022-08-27T02:57:49.085Z,16.95
2022-08-27T03:00:19.232Z,17.35
2022-08-27T03:02:45.985Z,18.30
2022-08-27T03:05:14.585Z,14.20
2022-08-27T03:07:41.521Z,17.25
2022-08-27T03:10:10.756Z,20.17
2022-08-27T03:12:37.378Z,23.88
2022-08-27T03:15:09.106Z,15.10
2022-08-27T03:17:55.214Z,25.42
2022-08-27T03:20:22.727Z,11.75
2022-08-27T03:22:49.342Z,19.60
2022-08-27T03:25:19.351Z,16.48
2022-08-27T03:27:45.999Z,14.23
2022-08-27T03:30:16.659Z,16.45
2022-08-27T03:32:43.689Z,17.52
2022-08-27T03:35:11.567Z,13.90
2022-08-27T03:37:38.447Z,16.90
2022-08-27T03:40:08.044Z,14.50
2022-08-27T03:42:35.859Z,19.50
2022-08-27T03:45:03.334Z,15.10
2022-08-27T03:47:30.073Z,14.68
2022-08-27T03:49:56.713Z,13.35
2022-08-27T03:52:23.275Z,17.95
2022-08-27T03:54:49.940Z,20.02
2022-08-27T03:57:17.308Z,14.52
2022-08-27T03:59:44.215Z,12.57
2022-08-27T04:02:10.877Z,16.63
2022-08-27T04:04:43.421Z,14.50
2022-08-27T04:07:10.455Z,14.98
2022-08-27T04:09:37.177Z,17.08
2022-08-27T04:12:03.875Z,14.70
2022-08-27T04:14:30.876Z,14.30
2022-08-27T04:16:58.190Z,16.38
2022-08-27T04:19:28.484Z,18.98
2022-08-27T04:22:00.707Z,17.88
2022-08-27T04:24:27.988Z,14.43
2022-08-27T04:26:54.598Z,15.52
2022-08-27T04:29:21.232Z,12.45
2022-08-27T04:31:47.988Z,15.73
2022-08-27T04:34:14.585Z,16.42
2022-08-27T04:36:41.663Z,24.30
2022-08-27T04:39:08.312Z,11.95
2022-08-27T04:41:35.067Z,17.65
2022-08-27T04:44:08.258Z,13.57
2022-08-27T04:46:37.645Z,15.57
2022-08-27T04:49:10.518Z,12.35
2022-08-27T04:51:39.357Z,14.07
2022-08-27T04:54:07.642Z,23.20
2022-08-27T04:56:36.930Z,19.30
2022-08-27T04:59:06.002Z,15.52
2022-08-27T05:01:32.711Z,20.75
2022-08-27T05:03:59.728Z,13.75
2022-08-27T05:06:27.180Z,14.85
2022-08-27T05:08:54.505Z,15.50
2022-08-27T05:11:23.172Z,15.40
2022-08-27T05:13:50.002Z,11.65
2022-08-27T05:16:21.803Z,17.50
2022-08-27T05:18:50.757Z,18.77
2022-08-27T05:21:26.723Z,13.45
2022-08-27T05:23:54.288Z,14.85
2022-08-27T05:26:21.268Z,15.82
2022-08-27T05:28:48.177Z,11.30
2022-08-27T05:31:15.710Z,16.63
2022-08-27T05:33:44.056Z,15.35
2022-08-27T05:36:20.525Z,21.15
2022-08-27T05:38:49.374Z,16.60
2022-08-27T05:41:18.537Z,21.20
2022-08-27T05:43:49.830Z,19.50
2022-08-27T05:46:18.902Z,13.35
2022-08-27T05:48:45.762Z,15.02
2022-08-27T05:51:16.256Z,15.63
2022-08-27T05:53:55.545Z,21.90
2022-08-27T05:56:24.966Z,14.57
2022-08-27T05:59:10.220Z,13.18
2022-08-27T06:01:40.808Z,12.90
2022-08-27T06:04:09.191Z,13.95
2022-08-27T06:06:37.554Z,13.75
2022-08-27T06:09:05.856Z,25.15
2022-08-27T06:11:33.131Z,13.98
2022-08-27T06:13:59.832Z,19.48
2022-08-27T06:16:26.579Z,23.15
2022-08-27T06:18:54.005Z,11.45
2022-08-27T06:21:24.670Z,12.93
2022-08-27T06:23:52.681Z,19.95
2022-08-27T06:26:21.569Z,21.88
2022-08-27T06:28:49.514Z,16.65
2022-08-27T06:31:22.756Z,14.55
2022-08-27T06:33:51.673Z,13.38
2022-08-27T06:36:21.550Z,12.05
2022-08-27T06:38:49.492Z,14.85
2022-08-27T06:41:23.618Z,12.45
2022-08-27T06:43:51.828Z,11.60
2022-08-27T06:46:21.919Z,11.38
2022-08-27T06:48:52.344Z,15.20
2022-08-27T06:51:24.330Z,11.48
2022-08-27T06:53:52.266Z,12.77
2022-08-27T06:56:19.890Z,13.68
2022-08-27T06:58:46.933Z,15.48
2022-08-27T07:01:22.230Z,10.65
2022-08-27T07:03:49.462Z,15.45
2022-08-27T07:06:17.965Z,17.27
2022-08-27T07:08:53.347Z,11.13
2022-08-27T07:11:21.196Z,13.23
2022-08-27T07:13:49.167Z,16.27
2022-08-27T07:16:23.200Z,12.43
2022-08-27T07:18:52.648Z,15.55
2022-08-27T07:21:20.732Z,13.13
2022-08-27T07:23:48.698Z,10.02
2022-08-27T07:26:16.015Z,14.43
2022-08-27T07:28:44.061Z,19.35
2022-08-27T07:31:13.775Z,14.73
2022-08-27T07:33:45.437Z,9.10
2022-08-27T07:36:19.576Z,11.02
2022-08-27T07:38:53.516Z,8.77
2022-08-27T07:41:31.245Z,13.02
2022-08-27T07:44:18.249Z,19.17
2022-08-27T07:46:47.907Z,9.52
2022-08-27T07:49:17.610Z,9.20
2022-08-27T07:51:44.299Z,14.00
2022-08-27T07:54:10.996Z,10.82
2022-08-27T07:56:37.584Z,12.98
2022-08-27T07:59:04.179Z,8.60
2022-08-27T08:01:30.870Z,13.50
2022-08-27T08:03:57.616Z,19.17
2022-08-27T08:06:24.293Z,12.05
2022-08-27T08:08:50.971Z,6.78
2022-08-27T08:11:18.939Z,15.00
2022-08-27T08:13:47.237Z,11.77
2022-08-27T08:16:14.849Z,8.90
2022-08-27T08:18:41.448Z,9.90
2022-08-27T08:21:11.852Z,14.57
2022-08-27T08:23:38.968Z,9.23
2022-08-27T08:26:06.788Z,11.43
2022-08-27T08:28:35.416Z,10.25
2022-08-27T08:31:02.422Z,13.40
2022-08-27T08:33:31.328Z,10.93
2022-08-27T08:36:06.900Z,17.52
2022-08-27T08:38:34.152Z,10.57
2022-08-27T08:41:01.496Z,9.52
2022-08-27T08:43:47.267Z,11.07
2022-08-27T08:46:22.238Z,7.60
2022-08-27T08:48:52.829Z,7.60
2022-08-27T08:51:32.672Z,10.68
2022-08-27T08:54:06.882Z,11.68
2022-08-27T08:57:13.975Z,8.63
2022-08-27T08:59:54.501Z,15.90
2022-08-27T09:02:22.486Z,9.48
2022-08-27T09:04:49.221Z,7.28
2022-08-27T09:07:44.776Z,8.98
2022-08-27T09:10:26.227Z,10.15
2022-08-27T09:12:58.688Z,9.93
2022-08-27T09:15:29.074Z,14.77
2022-08-27T09:18:14.635Z,9.43
2022-08-27T09:20:46.777Z,8.85
2022-08-27T09:23:30.993Z,7.85
2022-08-27T09:25:57.620Z,8.82
2022-08-27T09:28:46.084Z,8.25
2022-08-27T09:31:17.216Z,9.60
2022-08-27T09:33:55.098Z,13.02
2022-08-27T09:36:23.964Z,11.07
2022-08-27T09:39:02.211Z,9.73
2022-08-27T09:41:40.019Z,12.63
2022-08-27T09:44:12.652Z,8.27
2022-08-27T09:46:57.866Z,7.90
2022-08-27T09:49:25.308Z,8.43
2022-08-27T09:51:53.384Z,6.88
2022-08-27T09:54:56.477Z,6.93
2022-08-27T09:57:42.106Z,9.82
2022-08-27T10:00:15.218Z,6.50
2022-08-27T10:02:53.325Z,6.00
2022-08-27T10:05:38.529Z,12.38
2022-08-27T10:08:23.968Z,9.88
2022-08-27T10:11:00.481Z,20.42
2022-08-27T10:13:53.317Z,5.90
2022-08-27T10:16:46.466Z,8.27
2022-08-27T10:19:41.123Z,8.85
2022-08-27T10:22:32.460Z,9.75
2022-08-27T10:25:06.276Z,12.63
2022-08-27T10:28:06.875Z,8.68
2022-08-27T10:30:52.175Z,7.45
2022-08-27T10:33:50.213Z,8.93
2022-08-27T10:36:32.495Z,4.28
2022-08-27T10:39:12.362Z,5.47
2022-08-27T10:42:11.960Z,13.25
2022-08-27T10:45:07.553Z,5.32
2022-08-27T10:47:46.470Z,3.67
2022-08-27T10:50:40.883Z,7.00
2022-08-27T10:53:20.904Z,3.10
2022-08-27T10:55:52.385Z,4.70
2022-08-27T10:58:25.153Z,4.88
2022-08-27T11:01:06.342Z,5.03
2022-08-27T11:03:51.584Z,3.90
2022-08-27T11:06:33.612Z,6.53
2022-08-27T11:09:11.288Z,5.10
2022-08-27T11:14:43.249Z,5.43
2022-08-27T11:17:38.006Z,7.25
2022-08-27T11:20:18.727Z,6.22
2022-08-27T11:22:49.288Z,6.68
2022-08-27T11:25:27.872Z,3.22
2022-08-27T11:27:56.116Z,5.40
2022-08-27T11:30:59.083Z,8.32
2022-08-27T11:33:45.390Z,4.68
2022-08-27T11:36:37.314Z,6.53
2022-08-27T11:39:29.692Z,3.08
2022-08-27T11:42:07.017Z,3.00
2022-08-27T11:44:42.443Z,3.55
2022-08-27T11:47:19.232Z,3.20
2022-08-27T11:49:55.632Z,9.13
2022-08-27T11:52:34.893Z,6.50
2022-08-27T11:55:26.069Z,6.00
2022-08-27T11:58:05.976Z,3.47
2022-08-27T12:00:36.339Z,5.00
2022-08-27T12:03:05.355Z,3.92
2022-08-27T12:05:45.492Z,6.72
2022-08-27T12:08:20.313Z,3.25
2022-08-27T12:10:47.889Z,9.75
2022-08-27T12:13:28.388Z,4.72
2022-08-27T12:15:58.167Z,6.15
2022-08-27T12:18:43.745Z,4.88
2022-08-27T12:21:30.735Z,8.65
2022-08-27T12:24:32.264Z,5.55
2022-08-27T12:27:24.308Z,7.55
2022-08-27T12:30:09.360Z,3.55
2022-08-27T12:32:44.629Z,8.27
2022-08-27T12:35:17.632Z,5.70
2022-08-27T12:38:09.829Z,4.57
2022-08-27T12:40:49.393Z,7.65
2022-08-27T12:43:26.069Z,4.00
2022-08-27T12:46:06.343Z,2.70
2022-08-27T12:48:46.396Z,8.13
2022-08-27T12:51:23.270Z,4.60
2022-08-27T12:54:28.898Z,5.32
2022-08-27T12:57:17.360Z,5.00
2022-08-27T13:00:02.895Z,3.70
2022-08-27T13:02:47.371Z,5.00
2022-08-27T13:05:19.646Z,6.57
2022-08-27T13:07:47.720Z,3.75
2022-08-27T13:10:16.471Z,2.60
2022-08-27T13:12:45.068Z,8.40
2022-08-27T13:15:15.617Z,4.97
2022-08-27T13:17:46.303Z,4.32
2022-08-27T13:20:22.352Z,3.45
2022-08-27T13:22:50.085Z,3.33
2022-08-27T13:25:25.828Z,7.38
2022-08-27T13:27:59.233Z,5.93
2022-08-27T13:30:35.696Z,2.35
2022-08-27T13:33:06.136Z,2.95
2022-08-27T13:35:33.984Z,4.82
2022-08-27T13:38:02.439Z,2.75
2022-08-27T13:40:51.248Z,4.63
2022-08-27T13:43:18.751Z,5.35
2022-08-27T13:45:50.230Z,3.58
2022-08-27T13:48:19.828Z,4.40
2022-08-27T13:50:58.192Z,3.28
2022-08-27T13:53:47.650Z,3.20
2022-08-27T13:56:31.754Z,6.82
2022-08-27T13:59:18.813Z,4.35
2022-08-27T14:02:09.496Z,4.75
2022-08-27T14:04:43.384Z,2.75
2022-08-27T14:07:21.756Z,7.47
2022-08-27T14:10:15.416Z,4.65
2022-08-27T14:12:42.581Z,4.97
2022-08-27T14:15:29.861Z,4.80
2022-08-27T14:17:56.754Z,4.72
2022-08-27T14:20:25.287Z,5.80
2022-08-27T14:22:52.143Z,3.95
2022-08-27T14:25:22.339Z,3.47
2022-08-27T14:27:54.171Z,3.15
2022-08-27T14:33:16.220Z,9.35
2022-08-27T14:35:43.547Z,1.50
2022-08-27T14:38:18.556Z,0.73
2022-08-27T14:40:52.372Z,1.42
2022-08-27T14:43:20.338Z,1.05
2022-08-27T14:45:51.678Z,5.63
2022-08-27T14:48:21.796Z,5.20
2022-08-27T14:50:56.579Z,3.78
2022-08-27T14:53:23.443Z,2.00
2022-08-27T14:55:52.112Z,3.40
2022-08-27T14:58:20.257Z,4.38
2022-08-27T15:00:47.212Z,2.15
2022-08-27T15:03:14.529Z,2.80
2022-08-27T15:05:43.368Z,1.42
2022-08-27T15:08:13.349Z,6.75
2022-08-27T15:10:41.251Z,1.20
2022-08-27T15:13:11.059Z,2.65
2022-08-27T15:15:38.816Z,4.72
2022-08-27T15:18:06.059Z,2.40
2022-08-27T15:20:33.035Z,4.80
2022-08-27T15:22:59.917Z,4.70
2022-08-27T15:25:26.832Z,2.80
2022-08-27T15:27:54.219Z,3.30
2022-08-27T15:30:26.195Z,3.10
2022-08-27T15:32:53.440Z,3.90
2022-08-27T15:35:25.762Z,5.97
2022-08-27T15:37:54.094Z,8.18
2022-08-27T15:40:22.468Z,6.30
2022-08-27T15:42:57.652Z,3.25
2022-08-27T15:45:27.365Z,4.80
2022-08-27T15:47:55.081Z,3.53
2022-08-27T15:53:13.136Z,1.17
2022-08-27T15:55:42.355Z,4.47
2022-08-27T15:58:09.999Z,3.67
2022-08-27T16:00:37.987Z,4.00
2022-08-27T16:03:10.920Z,7.82
2022-08-27T16:05:39.850Z,4.53
2022-08-27T16:08:06.800Z,3.30
2022-08-27T16:10:33.737Z,4.05
2022-08-27T16:13:00.681Z,6.47
2022-08-27T16:15:27.680Z,7.47
2022-08-27T16:17:59.999Z,4.18
2022-08-27T16:20:27.128Z,3.60
2022-08-27T16:22:54.390Z,3.50
2022-08-27T16:25:23.196Z,2.55
2022-08-27T16:27:54.197Z,5.47
2022-08-27T16:30:21.644Z,3.70
2022-08-27T16:32:52.178Z,3.38
2022-08-27T16:35:20.309Z,3.58
2022-08-27T16:37:47.070Z,3.10
2022-08-27T16:40:14.984Z,4.78
2022-08-27T16:42:49.748Z,1.75
2022-08-27T16:45:22.967Z,3.65
2022-08-27T16:48:09.453Z,3.95
2022-08-27T16:50:36.856Z,4.95
2022-08-27T16:53:24.770Z,8.95
2022-08-27T16:55:51.800Z,3.63
2022-08-27T16:58:24.475Z,3.67
2022-08-27T17:00:53.756Z,8.25
2022-08-27T17:03:22.073Z,7.45
2022-08-27T17:05:49.497Z,5.43
2022-08-27T17:08:18.724Z,3.88
2022-08-27T17:10:50.525Z,5.30
2022-08-27T17:13:20.704Z,5.55
2022-08-27T17:15:52.557Z,3.28
2022-08-27T17:18:22.281Z,4.22
2022-08-27T17:20:50.816Z,3.30
2022-08-27T17:23:23.551Z,6.95
2022-08-27T17:25:52.513Z,3.17
2022-08-27T17:31:14.225Z,4.70
2022-08-27T17:33:44.874Z,4.15
2022-08-27T17:36:14.147Z,4.45
2022-08-27T17:38:42.149Z,4.85
2022-08-27T17:41:31.779Z,5.72
2022-08-27T17:44:05.454Z,4.13
2022-08-27T17:46:32.289Z,5.85
2022-08-27T17:48:59.572Z,5.07
2022-08-27T17:51:27.800Z,4.13
2022-08-27T17:54:00.588Z,7.68
2022-08-27T17:56:28.997Z,2.25
2022-08-27T17:58:56.506Z,4.13
2022-08-27T18:01:30.186Z,5.10
2022-08-27T18:03:58.331Z,4.97
2022-08-27T18:06:26.510Z,4.47
2022-08-27T18:08:53.991Z,7.15
2022-08-27T18:11:20.800Z,4.72
2022-08-27T18:13:52.383Z,6.53
2022-08-27T18:16:19.800Z,8.02
2022-08-27T18:18:46.663Z,3.33
2022-08-27T18:21:13.931Z,3.83
2022-08-27T18:23:51.589Z,3.17
2022-08-27T18:26:20.171Z,8.93
2022-08-27T18:28:48.989Z,4.50
2022-08-27T18:31:18.610Z,4.13
2022-08-27T18:33:45.635Z,3.42
2022-08-27T18:36:12.615Z,5.22
2022-08-27T18:38:39.208Z,7.22
2022-08-27T18:41:08.442Z,8.02
2022-08-27T18:43:35.916Z,2.88
2022-08-27T18:46:04.222Z,8.50
2022-08-27T18:48:31.604Z,7.95
2022-08-27T18:51:01.585Z,6.32
2022-08-27T18:53:31.003Z,2.90
2022-08-27T18:55:58.177Z,10.70
2022-08-27T18:58:25.195Z,6.88
2022-08-27T19:00:55.544Z,11.35
2022-08-27T19:03:34.595Z,8.68
2022-08-27T19:06:01.531Z,6.72
2022-08-27T19:08:37.310Z,6.45
2022-08-27T19:11:04.332Z,12.48
2022-08-27T19:13:32.272Z,5.18
2022-08-27T19:16:02.541Z,6.68
2022-08-27T19:18:32.304Z,5.25
2022-08-27T19:20:59.011Z,8.70
2022-08-27T19:23:29.324Z,4.90
2022-08-27T19:25:57.756Z,7.10
2022-08-27T19:28:29.208Z,5.65
2022-08-27T19:30:55.872Z,5.78
2022-08-27T19:33:22.711Z,7.55
2022-08-27T19:35:49.699Z,5.28
2022-08-27T19:38:16.431Z,4.70
2022-08-27T19:40:43.098Z,4.68
2022-08-27T19:43:10.115Z,4.75
2022-08-27T19:45:40.423Z,8.40
2022-08-27T19:48:08.825Z,3.63
2022-08-27T19:50:35.554Z,6.55
2022-08-27T19:53:02.196Z,3.45
2022-08-27T19:55:28.863Z,6.55
2022-08-27T19:57:55.507Z,6.90
2022-08-27T20:00:24.763Z,7.03
2022-08-27T20:02:55.355Z,5.20
2022-08-27T20:05:23.060Z,6.28
2022-08-27T20:07:53.315Z,9.00
2022-08-27T20:10:31.608Z,7.85
2022-08-27T20:13:04.888Z,9.20
2022-08-27T20:15:32.108Z,10.55
2022-08-27T20:18:01.467Z,3.83
2022-08-27T20:20:29.324Z,8.25
2022-08-27T20:22:56.600Z,7.50
2022-08-27T20:25:23.810Z,4.03
2022-08-27T20:27:51.597Z,6.38
2022-08-27T20:30:20.288Z,4.47
2022-08-27T20:32:47.191Z,4.00
2022-08-27T20:35:15.101Z,5.82
2022-08-27T20:37:42.648Z,4.15
2022-08-27T20:40:13.583Z,7.05
2022-08-27T20:42:40.331Z,6.43
2022-08-27T20:45:11.722Z,6.40
2022-08-27T20:47:40.211Z,9.95
2022-08-27T20:50:08.169Z,11.55
2022-08-27T20:52:35.896Z,12.75
2022-08-27T20:55:03.544Z,8.80
2022-08-27T20:57:30.483Z,5.75
2022-08-27T21:00:16.013Z,8.63
2022-08-27T21:02:42.769Z,4.97
2022-08-27T21:05:12.492Z,10.15
2022-08-27T21:07:39.621Z,4.35
2022-08-27T21:10:07.146Z,4.68
2022-08-27T21:12:34.106Z,3.85
2022-08-27T21:15:02.235Z,14.00
2022-08-27T21:17:29.383Z,9.95
2022-08-27T21:22:37.555Z,12.20
2022-08-27T21:25:05.057Z,7.90
2022-08-27T21:27:32.040Z,9.15
2022-08-27T21:29:58.884Z,16.98
2022-08-27T21:32:25.598Z,4.57
2022-08-27T21:34:52.316Z,8.27
2022-08-27T21:37:19.108Z,3.20
2022-08-27T21:39:45.977Z,5.90
2022-08-27T21:42:13.474Z,5.32
2022-08-27T21:44:41.688Z,4.25
2022-08-27T21:47:09.135Z,2.50
2022-08-27T21:49:35.853Z,5.38
2022-08-27T21:52:05.836Z,5.75
2022-08-27T21:54:34.723Z,5.22
2022-08-27T21:57:02.988Z,11.35
2022-08-27T21:59:30.396Z,6.70
2022-08-27T22:02:01.062Z,4.80
2022-08-27T22:04:29.782Z,9.20
2022-08-27T22:06:58.428Z,3.67
2022-08-27T22:09:25.047Z,7.13
2022-08-27T22:11:51.659Z,5.25
2022-08-27T22:14:18.440Z,5.47
2022-08-27T22:16:45.033Z,7.47
2022-08-27T22:19:11.648Z,8.30
2022-08-27T22:21:39.077Z,7.63
2022-08-27T22:24:06.065Z,7.85
2022-08-27T22:26:32.681Z,3.17
2022-08-27T22:28:59.455Z,4.05
2022-08-27T22:31:26.184Z,6.35
2022-08-27T22:33:53.386Z,4.15
2022-08-27T22:36:20.378Z,6.47
2022-08-27T22:38:47.631Z,6.18
2022-08-27T22:41:14.808Z,11.38
2022-08-27T22:43:45.524Z,4.35
2022-08-27T22:46:12.349Z,6.50
2022-08-27T22:48:39.385Z,11.63
2022-08-27T22:51:06.302Z,4.88
2022-08-27T22:53:36.049Z,11.13
2022-08-27T22:56:05.968Z,4.63
2022-08-27T22:58:32.774Z,2.65
2022-08-27T23:00:59.353Z,15.10
2022-08-27T23:03:26.078Z,6.60
2022-08-27T23:05:52.911Z,10.82
2022-08-27T23:08:19.672Z,2.60
2022-08-27T23:10:46.372Z,6.15
2022-08-27T23:13:13.370Z,9.15
2022-08-27T23:15:41.451Z,8.07
2022-08-27T23:18:08.321Z,3.88
2022-08-27T23:20:35.221Z,3.85
2022-08-27T23:23:02.700Z,13.50
2022-08-27T23:25:48.763Z,6.97
2022-08-27T23:28:16.159Z,6.05
2022-08-27T23:30:44.440Z,4.72
2022-08-27T23:33:12.745Z,5.03
2022-08-27T23:35:41.164Z,5.22
2022-08-27T23:38:07.799Z,8.77
2022-08-27T23:40:34.477Z,7.55
2022-08-27T23:43:01.155Z,2.67
2022-08-27T23:45:27.925Z,7.82
2022-08-27T23:47:54.552Z,6.97
2022-08-27T23:50:26.391Z,4.65
2022-08-27T23:53:01.805Z,4.97
2022-08-27T23:55:28.779Z,4.18
2022-08-27T23:57:57.519Z,5.63
